sensor_id;sensor_type;location;lat;lon;timestamp;pressure;altitude;pressure_sealevel;temperature;humidity
77725;BME280;66892;53.236;6.550;2024-01-30T00:02:11;102709.16;;;4.45;100.00
77725;BME280;66892;53.236;6.550;2024-01-30T00:04:38;102699.72;;;4.49;100.00
77725;BME280;66892;53.236;6.550;2024-01-30T00:07:04;102703.31;;;4.51;100.00
77725;BME280;66892;53.236;6.550;2024-01-30T00:09:31;102696.50;;;4.54;100.00
77725;BME280;66892;53.236;6.550;2024-01-30T00:11:57;102695.69;;;4.55;100.00
77725;BME280;66892;53.236;6.550;2024-01-30T00:14:23;102694.84;;;4.56;100.00
77725;BME280;66892;53.236;6.550;2024-01-30T00:16:50;102689.41;;;4.69;100.00
77725;BME280;66892;53.236;6.550;2024-01-30T00:19:16;102690.56;;;4.74;100.00
77725;BME280;66892;53.236;6.550;2024-01-30T00:21:44;102687.84;;;4.73;100.00
77725;BME280;66892;53.236;6.550;2024-01-30T00:24:10;102685.22;;;4.73;100.00
77725;BME280;66892;53.236;6.550;2024-01-30T00:26:36;102687.53;;;4.67;100.00
77725;BME280;66892;53.236;6.550;2024-01-30T00:29:02;102682.06;;;4.62;100.00
77725;BME280;66892;53.236;6.550;2024-01-30T00:31:28;102683.72;;;4.60;100.00
77725;BME280;66892;53.236;6.550;2024-01-30T00:33:54;102673.25;;;4.60;100.00
77725;BME280;66892;53.236;6.550;2024-01-30T00:36:20;102668.75;;;4.58;100.00
77725;BME280;66892;53.236;6.550;2024-01-30T00:38:48;102673.38;;;4.63;100.00
77725;BME280;66892;53.236;6.550;2024-01-30T00:41:14;102677.66;;;4.61;100.00
77725;BME280;66892;53.236;6.550;2024-01-30T00:43:43;102671.28;;;4.56;100.00
77725;BME280;66892;53.236;6.550;2024-01-30T00:46:10;102667.53;;;4.51;100.00
77725;BME280;66892;53.236;6.550;2024-01-30T00:48:36;102663.06;;;4.49;100.00
77725;BME280;66892;53.236;6.550;2024-01-30T00:51:02;102658.63;;;4.48;100.00
77725;BME280;66892;53.236;6.550;2024-01-30T00:53:28;102655.84;;;4.45;100.00
77725;BME280;66892;53.236;6.550;2024-01-30T00:55:56;102652.44;;;4.46;100.00
77725;BME280;66892;53.236;6.550;2024-01-30T00:58:22;102652.56;;;4.49;100.00
77725;BME280;66892;53.236;6.550;2024-01-30T01:00:48;102641.59;;;4.56;100.00
77725;BME280;66892;53.236;6.550;2024-01-30T01:03:14;102643.50;;;4.60;100.00
77725;BME280;66892;53.236;6.550;2024-01-30T01:05:40;102648.41;;;4.52;100.00
77725;BME280;66892;53.236;6.550;2024-01-30T01:08:06;102647.34;;;4.49;100.00
77725;BME280;66892;53.236;6.550;2024-01-30T01:10:32;102646.34;;;4.47;100.00
77725;BME280;66892;53.236;6.550;2024-01-30T01:13:00;102645.63;;;4.49;100.00
77725;BME280;66892;53.236;6.550;2024-01-30T01:15:26;102648.25;;;4.49;100.00
77725;BME280;66892;53.236;6.550;2024-01-30T01:17:52;102650.78;;;4.48;100.00
77725;BME280;66892;53.236;6.550;2024-01-30T01:20:18;102644.56;;;4.46;100.00
77725;BME280;66892;53.236;6.550;2024-01-30T01:22:44;102643.06;;;4.51;100.00
77725;BME280;66892;53.236;6.550;2024-01-30T01:25:10;102643.22;;;4.54;100.00
77725;BME280;66892;53.236;6.550;2024-01-30T01:27:36;102642.31;;;4.53;100.00
77725;BME280;66892;53.236;6.550;2024-01-30T01:30:09;102641.25;;;4.50;100.00
77725;BME280;66892;53.236;6.550;2024-01-30T01:32:36;102649.59;;;4.59;100.00
77725;BME280;66892;53.236;6.550;2024-01-30T01:35:02;102646.28;;;4.63;100.00
77725;BME280;66892;53.236;6.550;2024-01-30T01:37:29;102641.88;;;4.62;100.00
77725;BME280;66892;53.236;6.550;2024-01-30T01:39:55;102642.59;;;4.59;100.00
77725;BME280;66892;53.236;6.550;2024-01-30T01:42:21;102647.50;;;4.52;100.00
77725;BME280;66892;53.236;6.550;2024-01-30T01:44:48;102636.91;;;4.50;100.00
77725;BME280;66892;53.236;6.550;2024-01-30T01:47:15;102637.81;;;4.51;100.00
77725;BME280;66892;53.236;6.550;2024-01-30T01:49:42;102640.38;;;4.49;100.00
77725;BME280;66892;53.236;6.550;2024-01-30T01:52:08;102638.63;;;4.50;100.00
77725;BME280;66892;53.236;6.550;2024-01-30T01:54:35;102633.53;;;4.53;100.00
77725;BME280;66892;53.236;6.550;2024-01-30T01:57:03;102625.25;;;4.61;100.00
77725;BME280;66892;53.236;6.550;2024-01-30T01:59:29;102631.47;;;4.63;100.00
77725;BME280;66892;53.236;6.550;2024-01-30T02:01:56;102633.31;;;4.66;100.00
77725;BME280;66892;53.236;6.550;2024-01-30T02:04:23;102622.84;;;4.66;100.00
77725;BME280;66892;53.236;6.550;2024-01-30T02:06:50;102616.94;;;4.70;100.00
77725;BME280;66892;53.236;6.550;2024-01-30T02:09:16;102617.03;;;4.71;100.00
77725;BME280;66892;53.236;6.550;2024-01-30T02:11:42;102610.03;;;4.72;100.00
77725;BME280;66892;53.236;6.550;2024-01-30T02:14:08;102619.72;;;4.73;100.00
77725;BME280;66892;53.236;6.550;2024-01-30T02:16:34;102601.31;;;4.71;100.00
77725;BME280;66892;53.236;6.550;2024-01-30T02:19:00;102599.78;;;4.76;100.00
77725;BME280;66892;53.236;6.550;2024-01-30T02:21:27;102589.41;;;4.78;100.00
77725;BME280;66892;53.236;6.550;2024-01-30T02:23:54;102585.59;;;4.71;100.00
77725;BME280;66892;53.236;6.550;2024-01-30T02:26:21;102578.44;;;4.69;100.00
77725;BME280;66892;53.236;6.550;2024-01-30T02:28:47;102582.88;;;4.70;100.00
77725;BME280;66892;53.236;6.550;2024-01-30T02:31:13;102580.13;;;4.67;100.00
77725;BME280;66892;53.236;6.550;2024-01-30T02:33:39;102584.59;;;4.69;100.00
77725;BME280;66892;53.236;6.550;2024-01-30T02:36:05;102589.25;;;4.75;100.00
77725;BME280;66892;53.236;6.550;2024-01-30T02:38:32;102592.03;;;4.78;100.00
77725;BME280;66892;53.236;6.550;2024-01-30T02:40:58;102591.13;;;4.77;100.00
77725;BME280;66892;53.236;6.550;2024-01-30T02:43:24;102586.03;;;4.81;100.00
77725;BME280;66892;53.236;6.550;2024-01-30T02:45:50;102586.94;;;4.81;100.00
77725;BME280;66892;53.236;6.550;2024-01-30T02:48:17;102587.97;;;4.85;100.00
77725;BME280;66892;53.236;6.550;2024-01-30T02:50:43;102586.31;;;4.87;100.00
77725;BME280;66892;53.236;6.550;2024-01-30T02:53:09;102587.22;;;4.87;100.00
77725;BME280;66892;53.236;6.550;2024-01-30T02:55:36;102565.34;;;4.87;100.00
77725;BME280;66892;53.236;6.550;2024-01-30T02:58:02;102566.25;;;4.87;100.00
77725;BME280;66892;53.236;6.550;2024-01-30T03:00:29;102562.44;;;4.81;100.00
77725;BME280;66892;53.236;6.550;2024-01-30T03:02:55;102559.81;;;4.81;100.00
77725;BME280;66892;53.236;6.550;2024-01-30T03:05:21;102549.66;;;4.88;100.00
77725;BME280;66892;53.236;6.550;2024-01-30T03:07:47;102561.81;;;4.86;100.00
77725;BME280;66892;53.236;6.550;2024-01-30T03:10:13;102553.81;;;4.83;100.00
77725;BME280;66892;53.236;6.550;2024-01-30T03:12:40;102555.00;;;4.90;100.00
77725;BME280;66892;53.236;6.550;2024-01-30T03:15:07;102548.03;;;4.90;100.00
77725;BME280;66892;53.236;6.550;2024-01-30T03:17:33;102554.09;;;4.89;100.00
77725;BME280;66892;53.236;6.550;2024-01-30T03:19:59;102555.09;;;4.91;100.00
77725;BME280;66892;53.236;6.550;2024-01-30T03:22:25;102553.47;;;4.95;100.00
77725;BME280;66892;53.236;6.550;2024-01-30T03:24:51;102556.03;;;4.93;100.00
77725;BME280;66892;53.236;6.550;2024-01-30T03:27:17;102553.63;;;4.98;100.00
77725;BME280;66892;53.236;6.550;2024-01-30T03:29:44;102545.75;;;4.98;100.00
77725;BME280;66892;53.236;6.550;2024-01-30T03:32:10;102539.41;;;4.93;100.00
77725;BME280;66892;53.236;6.550;2024-01-30T03:34:36;102547.41;;;4.96;100.00
77725;BME280;66892;53.236;6.550;2024-01-30T03:37:03;102536.94;;;4.96;100.00
77725;BME280;66892;53.236;6.550;2024-01-30T03:39:29;102523.00;;;4.97;100.00
77725;BME280;66892;53.236;6.550;2024-01-30T03:41:56;102536.41;;;5.03;100.00
77725;BME280;66892;53.236;6.550;2024-01-30T03:44:22;102540.50;;;4.98;100.00
77725;BME280;66892;53.236;6.550;2024-01-30T03:46:50;102526.81;;;5.03;100.00
77725;BME280;66892;53.236;6.550;2024-01-30T03:49:16;102513.84;;;5.06;100.00
77725;BME280;66892;53.236;6.550;2024-01-30T03:51:42;102513.00;;;5.07;100.00
77725;BME280;66892;53.236;6.550;2024-01-30T03:54:08;102506.75;;;5.04;100.00
77725;BME280;66892;53.236;6.550;2024-01-30T03:56:34;102495.06;;;4.97;100.00
77725;BME280;66892;53.236;6.550;2024-01-30T03:59:00;102482.25;;;5.03;100.00
77725;BME280;66892;53.236;6.550;2024-01-30T04:01:26;102475.16;;;5.01;100.00
77725;BME280;66892;53.236;6.550;2024-01-30T04:03:54;102461.72;;;5.14;100.00
77725;BME280;66892;53.236;6.550;2024-01-30T04:06:20;102470.75;;;5.20;100.00
77725;BME280;66892;53.236;6.550;2024-01-30T04:08:46;102517.09;;;5.20;100.00
77725;BME280;66892;53.236;6.550;2024-01-30T04:11:12;102503.00;;;5.18;100.00
77725;BME280;66892;53.236;6.550;2024-01-30T04:13:38;102502.22;;;5.20;100.00
77725;BME280;66892;53.236;6.550;2024-01-30T04:16:07;102508.59;;;5.25;100.00
77725;BME280;66892;53.236;6.550;2024-01-30T04:18:33;102497.69;;;5.36;100.00
77725;BME280;66892;53.236;6.550;2024-01-30T04:21:01;102490.59;;;5.54;100.00
77725;BME280;66892;53.236;6.550;2024-01-30T04:23:27;102493.56;;;5.61;100.00
77725;BME280;66892;53.236;6.550;2024-01-30T04:25:53;102487.03;;;5.72;100.00
77725;BME280;66892;53.236;6.550;2024-01-30T04:28:19;102486.34;;;5.76;100.00
77725;BME280;66892;53.236;6.550;2024-01-30T04:30:45;102490.94;;;5.82;100.00
77725;BME280;66892;53.236;6.550;2024-01-30T04:33:11;102490.00;;;5.80;100.00
77725;BME280;66892;53.236;6.550;2024-01-30T04:35:37;102490.03;;;5.81;100.00
77725;BME280;66892;53.236;6.550;2024-01-30T04:38:05;102504.84;;;5.79;100.00
77725;BME280;66892;53.236;6.550;2024-01-30T04:40:31;102512.72;;;5.79;100.00
77725;BME280;66892;53.236;6.550;2024-01-30T04:42:57;102501.56;;;5.85;100.00
77725;BME280;66892;53.236;6.550;2024-01-30T04:45:23;102493.69;;;5.85;100.00
77725;BME280;66892;53.236;6.550;2024-01-30T04:47:49;102489.31;;;5.84;100.00
77725;BME280;66892;53.236;6.550;2024-01-30T04:50:16;102491.94;;;5.84;100.00
77725;BME280;66892;53.236;6.550;2024-01-30T04:52:42;102486.06;;;5.90;100.00
77725;BME280;66892;53.236;6.550;2024-01-30T04:55:09;102480.00;;;5.91;100.00
77725;BME280;66892;53.236;6.550;2024-01-30T04:57:35;102472.28;;;5.95;100.00
77725;BME280;66892;53.236;6.550;2024-01-30T05:00:03;102468.88;;;5.98;100.00
77725;BME280;66892;53.236;6.550;2024-01-30T05:02:29;102466.38;;;6.01;100.00
77725;BME280;66892;53.236;6.550;2024-01-30T05:04:55;102457.75;;;6.03;100.00
77725;BME280;66892;53.236;6.550;2024-01-30T05:07:21;102459.53;;;6.04;100.00
77725;BME280;66892;53.236;6.550;2024-01-30T05:09:47;102466.81;;;6.11;100.00
77725;BME280;66892;53.236;6.550;2024-01-30T05:12:15;102466.94;;;6.14;100.00
77725;BME280;66892;53.236;6.550;2024-01-30T05:14:41;102458.28;;;6.17;100.00
77725;BME280;66892;53.236;6.550;2024-01-30T05:17:07;102461.16;;;6.23;100.00
77725;BME280;66892;53.236;6.550;2024-01-30T05:19:35;102452.34;;;6.21;100.00
77725;BME280;66892;53.236;6.550;2024-01-30T05:22:01;102454.97;;;6.21;100.00
77725;BME280;66892;53.236;6.550;2024-01-30T05:24:27;102449.78;;;6.22;100.00
77725;BME280;66892;53.236;6.550;2024-01-30T05:26:53;102443.91;;;6.29;100.00
77725;BME280;66892;53.236;6.550;2024-01-30T05:29:21;102449.44;;;6.35;100.00
77725;BME280;66892;53.236;6.550;2024-01-30T05:31:47;102447.78;;;6.39;100.00
77725;BME280;66892;53.236;6.550;2024-01-30T05:34:13;102446.94;;;6.39;100.00
77725;BME280;66892;53.236;6.550;2024-01-30T05:36:39;102437.03;;;6.33;100.00
77725;BME280;66892;53.236;6.550;2024-01-30T05:39:05;102440.53;;;6.32;100.00
77725;BME280;66892;53.236;6.550;2024-01-30T05:41:31;102435.97;;;6.28;100.00
77725;BME280;66892;53.236;6.550;2024-01-30T05:43:57;102423.78;;;6.30;100.00
77725;BME280;66892;53.236;6.550;2024-01-30T05:46:25;102433.25;;;6.25;100.00
77725;BME280;66892;53.236;6.550;2024-01-30T05:48:51;102422.63;;;6.22;100.00
77725;BME280;66892;53.236;6.550;2024-01-30T05:51:17;102448.03;;;6.23;100.00
77725;BME280;66892;53.236;6.550;2024-01-30T05:53:43;102449.53;;;6.16;100.00
77725;BME280;66892;53.236;6.550;2024-01-30T05:56:09;102461.03;;;6.20;100.00
77725;BME280;66892;53.236;6.550;2024-01-30T05:58:35;102458.28;;;6.17;100.00
77725;BME280;66892;53.236;6.550;2024-01-30T06:01:03;102460.09;;;6.18;100.00
77725;BME280;66892;53.236;6.550;2024-01-30T06:03:33;102461.16;;;6.23;100.00
77725;BME280;66892;53.236;6.550;2024-01-30T06:05:59;102464.75;;;6.25;100.00
77725;BME280;66892;53.236;6.550;2024-01-30T06:08:25;102458.53;;;6.23;100.00
77725;BME280;66892;53.236;6.550;2024-01-30T06:10:51;102461.16;;;6.23;100.00
77725;BME280;66892;53.236;6.550;2024-01-30T06:13:18;102457.59;;;6.21;100.00
77725;BME280;66892;53.236;6.550;2024-01-30T06:15:44;102449.81;;;6.24;100.00
77725;BME280;66892;53.236;6.550;2024-01-30T06:18:10;102452.34;;;6.21;100.00
77725;BME280;66892;53.236;6.550;2024-01-30T06:20:37;102457.53;;;6.19;100.00
77725;BME280;66892;53.236;6.550;2024-01-30T06:23:03;102454.13;;;6.22;100.00
77725;BME280;66892;53.236;6.550;2024-01-30T06:25:29;102448.88;;;6.22;100.00
77725;BME280;66892;53.236;6.550;2024-01-30T06:27:56;102441.16;;;6.26;100.00
77725;BME280;66892;53.236;6.550;2024-01-30T06:30:22;102438.63;;;6.28;100.00
77725;BME280;66892;53.236;6.550;2024-01-30T06:32:48;102430.72;;;6.28;100.00
77725;BME280;66892;53.236;6.550;2024-01-30T06:35:14;102427.44;;;6.33;100.00
77725;BME280;66892;53.236;6.550;2024-01-30T06:37:42;102436.88;;;6.28;100.00
77725;BME280;66892;53.236;6.550;2024-01-30T06:40:08;102433.25;;;6.25;100.00
77725;BME280;66892;53.236;6.550;2024-01-30T06:42:34;102426.06;;;6.21;100.00
77725;BME280;66892;53.236;6.550;2024-01-30T06:45:01;102422.53;;;6.20;100.00
77725;BME280;66892;53.236;6.550;2024-01-30T06:47:27;102436.69;;;6.24;100.00
77725;BME280;66892;53.236;6.550;2024-01-30T06:49:54;102436.88;;;6.28;100.00
77725;BME280;66892;53.236;6.550;2024-01-30T06:52:20;102428.47;;;6.37;100.00
77725;BME280;66892;53.236;6.550;2024-01-30T06:54:47;102439.97;;;6.41;100.00
77725;BME280;66892;53.236;6.550;2024-01-30T06:57:14;102441.66;;;6.39;100.00
77725;BME280;66892;53.236;6.550;2024-01-30T06:59:40;102431.19;;;6.40;100.00
77725;BME280;66892;53.236;6.550;2024-01-30T07:02:09;102433.03;;;6.43;100.00
77725;BME280;66892;53.236;6.550;2024-01-30T07:04:35;102428.78;;;6.45;100.00
77725;BME280;66892;53.236;6.550;2024-01-30T07:07:03;102425.41;;;6.49;100.00
77725;BME280;66892;53.236;6.550;2024-01-30T07:09:30;102429.13;;;6.54;100.00
77725;BME280;66892;53.236;6.550;2024-01-30T07:11:58;102416.09;;;6.57;100.00
77725;BME280;66892;53.236;6.550;2024-01-30T07:14:24;102416.28;;;6.61;100.00
77725;BME280;66892;53.236;6.550;2024-01-30T07:16:50;102412.19;;;6.69;100.00
77725;BME280;66892;53.236;6.550;2024-01-30T07:19:16;102407.75;;;6.68;100.00
77725;BME280;66892;53.236;6.550;2024-01-30T07:21:42;102410.38;;;6.68;100.00
77725;BME280;66892;53.236;6.550;2024-01-30T07:24:08;102416.66;;;6.72;100.00
77725;BME280;66892;53.236;6.550;2024-01-30T07:26:34;102428.16;;;6.74;100.00
77725;BME280;66892;53.236;6.550;2024-01-30T07:29:02;102422.88;;;6.74;100.00
77725;BME280;66892;53.236;6.550;2024-01-30T07:31:29;102427.25;;;6.73;100.00
77725;BME280;66892;53.236;6.550;2024-01-30T07:33:55;102425.50;;;6.74;100.00
77725;BME280;66892;53.236;6.550;2024-01-30T07:36:21;102425.41;;;6.71;100.00
77725;BME280;66892;53.236;6.550;2024-01-30T07:38:47;102435.97;;;6.72;100.00
77725;BME280;66892;53.236;6.550;2024-01-30T07:41:13;102439.59;;;6.76;100.00
77725;BME280;66892;53.236;6.550;2024-01-30T07:43:39;102431.63;;;6.74;100.00
77725;BME280;66892;53.236;6.550;2024-01-30T07:46:06;102430.00;;;6.76;100.00
77725;BME280;66892;53.236;6.550;2024-01-30T07:48:32;102437.16;;;6.80;100.00
77725;BME280;66892;53.236;6.550;2024-01-30T07:50:59;102431.94;;;6.82;100.00
77725;BME280;66892;53.236;6.550;2024-01-30T07:53:25;102431.16;;;6.84;100.00
77725;BME280;66892;53.236;6.550;2024-01-30T07:55:52;102447.78;;;6.83;100.00
77725;BME280;66892;53.236;6.550;2024-01-30T07:58:18;102439.09;;;6.86;100.00
77725;BME280;66892;53.236;6.550;2024-01-30T08:00:45;102442.69;;;6.88;100.00
77725;BME280;66892;53.236;6.550;2024-01-30T08:03:12;102451.69;;;6.95;100.00
77725;BME280;66892;53.236;6.550;2024-01-30T08:05:38;102452.47;;;6.92;100.00
77725;BME280;66892;53.236;6.550;2024-01-30T08:08:05;102454.16;;;6.90;100.00
77725;BME280;66892;53.236;6.550;2024-01-30T08:10:31;102456.06;;;6.94;100.00
77725;BME280;66892;53.236;6.550;2024-01-30T08:12:57;102458.75;;;6.96;100.00
77725;BME280;66892;53.236;6.550;2024-01-30T08:15:23;102451.66;;;6.93;100.00
77725;BME280;66892;53.236;6.550;2024-01-30T08:17:49;102452.41;;;6.90;100.00
77725;BME280;66892;53.236;6.550;2024-01-30T08:20:17;102443.47;;;6.85;100.00
77725;BME280;66892;53.236;6.550;2024-01-30T08:22:43;102446.81;;;6.81;100.00
77725;BME280;66892;53.236;6.550;2024-01-30T08:25:09;102444.25;;;6.83;100.00
77725;BME280;66892;53.236;6.550;2024-01-30T08:27:36;102462.69;;;6.84;100.00
77725;BME280;66892;53.236;6.550;2024-01-30T08:30:05;102464.50;;;6.85;100.00
77725;BME280;66892;53.236;6.550;2024-01-30T08:32:31;102475.91;;;6.86;100.00
77725;BME280;66892;53.236;6.550;2024-01-30T08:34:58;102478.06;;;6.96;100.00
77725;BME280;66892;53.236;6.550;2024-01-30T08:37:26;102472.47;;;7.11;100.00
77725;BME280;66892;53.236;6.550;2024-01-30T08:39:52;102477.31;;;7.24;100.00
77725;BME280;66892;53.236;6.550;2024-01-30T08:42:18;102465.41;;;7.33;100.00
77725;BME280;66892;53.236;6.550;2024-01-30T08:44:48;102476.34;;;7.46;100.00
77725;BME280;66892;53.236;6.550;2024-01-30T08:47:15;102469.63;;;7.54;100.00
77725;BME280;66892;53.236;6.550;2024-01-30T08:49:42;102460.72;;;7.50;100.00
77725;BME280;66892;53.236;6.550;2024-01-30T08:52:10;102472.78;;;7.43;100.00
77725;BME280;66892;53.236;6.550;2024-01-30T08:54:37;102484.94;;;7.40;100.00
77725;BME280;66892;53.236;6.550;2024-01-30T08:57:04;102479.88;;;7.46;100.00
77725;BME280;66892;53.236;6.550;2024-01-30T08:59:30;102480.78;;;7.47;100.00
77725;BME280;66892;53.236;6.550;2024-01-30T09:01:56;102483.59;;;7.51;100.00
77725;BME280;66892;53.236;6.550;2024-01-30T09:04:24;102474.09;;;7.56;100.00
77725;BME280;66892;53.236;6.550;2024-01-30T09:06:50;102477.94;;;7.66;100.00
77725;BME280;66892;53.236;6.550;2024-01-30T09:09:16;102481.50;;;7.68;100.00
77725;BME280;66892;53.236;6.550;2024-01-30T09:11:44;102481.78;;;7.75;100.00
77725;BME280;66892;53.236;6.550;2024-01-30T09:14:10;102489.91;;;7.81;100.00
77725;BME280;66892;53.236;6.550;2024-01-30T09:16:37;102491.19;;;7.94;100.00
77725;BME280;66892;53.236;6.550;2024-01-30T09:19:07;102500.28;;;8.02;100.00
77725;BME280;66892;53.236;6.550;2024-01-30T09:21:33;102491.84;;;8.12;100.00
77725;BME280;66892;53.236;6.550;2024-01-30T09:24:01;102490.34;;;8.20;100.00
77725;BME280;66892;53.236;6.550;2024-01-30T09:26:30;102489.91;;;8.33;100.00
77725;BME280;66892;53.236;6.550;2024-01-30T09:28:58;102488.66;;;8.49;100.00
77725;BME280;66892;53.236;6.550;2024-01-30T09:31:24;102494.38;;;8.63;100.00
77725;BME280;66892;53.236;6.550;2024-01-30T09:33:50;102481.69;;;8.79;100.00
77725;BME280;66892;53.236;6.550;2024-01-30T09:36:17;102491.16;;;9.02;100.00
77725;BME280;66892;53.236;6.550;2024-01-30T09:38:45;102487.13;;;9.15;100.00
77725;BME280;66892;53.236;6.550;2024-01-30T09:41:11;102499.97;;;9.33;100.00
77725;BME280;66892;53.236;6.550;2024-01-30T09:43:38;102496.66;;;9.40;100.00
77725;BME280;66892;53.236;6.550;2024-01-30T09:46:11;102496.75;;;9.43;100.00
77725;BME280;66892;53.236;6.550;2024-01-30T09:48:37;102487.31;;;9.52;100.00
77725;BME280;66892;53.236;6.550;2024-01-30T09:51:05;102502.50;;;9.60;100.00
77725;BME280;66892;53.236;6.550;2024-01-30T09:53:31;102500.59;;;9.56;100.00
77725;BME280;66892;53.236;6.550;2024-01-30T09:55:57;102491.84;;;9.57;100.00
77725;BME280;66892;53.236;6.550;2024-01-30T09:58:24;102490.72;;;9.48;100.00
77725;BME280;66892;53.236;6.550;2024-01-30T10:00:50;102492.53;;;9.51;100.00
77725;BME280;66892;53.236;6.550;2024-01-30T10:03:18;102498.91;;;9.58;100.00
77725;BME280;66892;53.236;6.550;2024-01-30T10:05:50;102497.28;;;9.63;100.00
77725;BME280;66892;53.236;6.550;2024-01-30T10:08:17;102490.16;;;9.60;100.00
77725;BME280;66892;53.236;6.550;2024-01-30T10:10:45;102492.03;;;9.64;100.00
77725;BME280;66892;53.236;6.550;2024-01-30T10:13:11;102482.34;;;9.63;100.00
77725;BME280;66892;53.236;6.550;2024-01-30T10:15:37;102481.53;;;9.67;100.00
77725;BME280;66892;53.236;6.550;2024-01-30T10:18:04;102475.72;;;9.79;100.00
77725;BME280;66892;53.236;6.550;2024-01-30T10:20:34;102485.75;;;9.92;100.00
77725;BME280;66892;53.236;6.550;2024-01-30T10:23:00;102484.78;;;9.90;100.00
77725;BME280;66892;53.236;6.550;2024-01-30T10:25:26;102482.13;;;9.90;100.00
77725;BME280;66892;53.236;6.550;2024-01-30T10:27:52;102484.75;;;9.88;100.00
77725;BME280;66892;53.236;6.550;2024-01-30T10:30:20;102496.19;;;9.89;100.00
77725;BME280;66892;53.236;6.550;2024-01-30T10:32:46;102481.22;;;9.88;100.00
77725;BME280;66892;53.236;6.550;2024-01-30T10:35:12;102483.81;;;9.86;100.00
77725;BME280;66892;53.236;6.550;2024-01-30T10:37:41;102492.56;;;9.84;100.00
77725;BME280;66892;53.236;6.550;2024-01-30T10:40:13;102496.75;;;9.76;100.00
77725;BME280;66892;53.236;6.550;2024-01-30T10:42:42;102497.53;;;9.72;100.00
77725;BME280;66892;53.236;6.550;2024-01-30T10:45:10;102498.44;;;9.72;100.00
77725;BME280;66892;53.236;6.550;2024-01-30T10:47:40;102497.47;;;9.70;100.00
77725;BME280;66892;53.236;6.550;2024-01-30T10:50:08;102500.16;;;9.72;100.00
77725;BME280;66892;53.236;6.550;2024-01-30T10:52:36;102492.19;;;9.70;100.00
77725;BME280;66892;53.236;6.550;2024-01-30T10:55:05;102502.06;;;9.76;100.00
77725;BME280;66892;53.236;6.550;2024-01-30T10:57:34;102502.06;;;9.76;100.00
77725;BME280;66892;53.236;6.550;2024-01-30T11:00:03;102495.13;;;9.81;100.00
77725;BME280;66892;53.236;6.550;2024-01-30T11:02:37;102495.19;;;9.84;100.00
77725;BME280;66892;53.236;6.550;2024-01-30T11:05:08;102497.91;;;9.87;100.00
77725;BME280;66892;53.236;6.550;2024-01-30T11:07:34;102505.91;;;9.90;100.00
77725;BME280;66892;53.236;6.550;2024-01-30T11:10:02;102492.72;;;9.90;100.00
77725;BME280;66892;53.236;6.550;2024-01-30T11:12:31;102504.13;;;9.89;100.00
77725;BME280;66892;53.236;6.550;2024-01-30T11:15:05;102506.81;;;9.90;100.00
77725;BME280;66892;53.236;6.550;2024-01-30T11:17:47;102502.44;;;9.91;100.00
77725;BME280;66892;53.236;6.550;2024-01-30T11:20:17;102494.44;;;9.88;100.00
77725;BME280;66892;53.236;6.550;2024-01-30T11:22:46;102505.00;;;9.88;100.00
77725;BME280;66892;53.236;6.550;2024-01-30T11:25:13;102509.53;;;9.93;100.00
77725;BME280;66892;53.236;6.550;2024-01-30T11:27:41;102482.97;;;9.89;100.00
77725;BME280;66892;53.236;6.550;2024-01-30T11:30:08;102497.09;;;9.89;100.00
77725;BME280;66892;53.236;6.550;2024-01-30T11:32:34;102512.25;;;9.95;100.00
77725;BME280;66892;53.236;6.550;2024-01-30T11:35:00;102498.06;;;9.93;100.00
77725;BME280;66892;53.236;6.550;2024-01-30T11:37:28;102511.25;;;9.91;100.00
77725;BME280;66892;53.236;6.550;2024-01-30T11:39:56;102506.75;;;9.87;100.00
77725;BME280;66892;53.236;6.550;2024-01-30T11:42:24;102509.53;;;9.93;100.00
77725;BME280;66892;53.236;6.550;2024-01-30T11:44:55;102503.44;;;9.96;100.00
77725;BME280;66892;53.236;6.550;2024-01-30T11:47:22;102506.06;;;9.94;100.00
77725;BME280;66892;53.236;6.550;2024-01-30T11:49:48;102502.53;;;9.95;100.00
77725;BME280;66892;53.236;6.550;2024-01-30T11:52:14;102509.75;;;10.01;100.00
77725;BME280;66892;53.236;6.550;2024-01-30T11:54:40;102514.13;;;10.00;100.00
77725;BME280;66892;53.236;6.550;2024-01-30T11:57:06;102504.31;;;9.95;100.00
77725;BME280;66892;53.236;6.550;2024-01-30T11:59:32;102514.00;;;9.96;100.00
77725;BME280;66892;53.236;6.550;2024-01-30T12:02:00;102508.69;;;9.94;100.00
77725;BME280;66892;53.236;6.550;2024-01-30T12:04:28;102515.56;;;9.88;100.00
77725;BME280;66892;53.236;6.550;2024-01-30T12:06:54;102514.47;;;9.80;100.00
77725;BME280;66892;53.236;6.550;2024-01-30T12:09:20;102516.84;;;9.71;100.00
77725;BME280;66892;53.236;6.550;2024-01-30T12:11:48;102519.34;;;9.65;100.00
77725;BME280;66892;53.236;6.550;2024-01-30T12:14:16;102519.19;;;9.59;100.00
77725;BME280;66892;53.236;6.550;2024-01-30T12:16:42;102514.91;;;9.64;100.00
77725;BME280;66892;53.236;6.550;2024-01-30T12:19:10;102518.28;;;9.58;100.00
77725;BME280;66892;53.236;6.550;2024-01-30T12:21:38;102519.13;;;9.57;100.00
77725;BME280;66892;53.236;6.550;2024-01-30T12:24:04;102516.38;;;9.52;100.00
77725;BME280;66892;53.236;6.550;2024-01-30T12:26:33;102517.22;;;9.51;100.00
77725;BME280;66892;53.236;6.550;2024-01-30T12:28:59;102521.59;;;9.51;100.00
77725;BME280;66892;53.236;6.550;2024-01-30T12:31:25;102519.00;;;9.52;100.00
77725;BME280;66892;53.236;6.550;2024-01-30T12:33:52;102517.19;;;9.50;100.00
77725;BME280;66892;53.236;6.550;2024-01-30T12:36:20;102525.97;;;9.50;100.00
77725;BME280;66892;53.236;6.550;2024-01-30T12:38:47;102526.34;;;9.63;100.00
77725;BME280;66892;53.236;6.550;2024-01-30T12:41:13;102524.75;;;9.69;100.00
77725;BME280;66892;53.236;6.550;2024-01-30T12:43:39;102515.63;;;9.58;100.00
77725;BME280;66892;53.236;6.550;2024-01-30T12:46:05;102517.28;;;9.53;100.00
77725;BME280;66892;53.236;6.550;2024-01-30T12:48:31;102518.06;;;9.50;100.00